sensor_id;sensor_type;location;lat;lon;timestamp;P1;durP1;ratioP1;P2;durP2;ratioP2
76115;SDS011;64847;45.778;12.802;2023-06-04T00:00:41;2.10;;;2.00;;
76115;SDS011;64847;45.778;12.802;2023-06-04T00:03:07;2.10;;;2.00;;
76115;SDS011;64847;45.778;12.802;2023-06-04T00:05:32;2.47;;;2.38;;
76115;SDS011;64847;45.778;12.802;2023-06-04T00:07:57;2.33;;;2.23;;
76115;SDS011;64847;45.778;12.802;2023-06-04T00:10:23;2.33;;;2.22;;
76115;SDS011;64847;45.778;12.802;2023-06-04T00:12:48;2.28;;;1.92;;
76115;SDS011;64847;45.778;12.802;2023-06-04T00:15:14;2.17;;;2.08;;
76115;SDS011;64847;45.778;12.802;2023-06-04T00:17:41;2.53;;;2.40;;
76115;SDS011;64847;45.778;12.802;2023-06-04T00:20:07;2.47;;;2.38;;
76115;SDS011;64847;45.778;12.802;2023-06-04T00:22:32;4.17;;;2.47;;
76115;SDS011;64847;45.778;12.802;2023-06-04T00:24:58;2.60;;;2.40;;
76115;SDS011;64847;45.778;12.802;2023-06-04T00:27:23;2.58;;;2.40;;
76115;SDS011;64847;45.778;12.802;2023-06-04T00:29:48;2.40;;;2.30;;
76115;SDS011;64847;45.778;12.802;2023-06-04T00:32:14;2.70;;;2.40;;
76115;SDS011;64847;45.778;12.802;2023-06-04T00:34:39;2.37;;;2.23;;
76115;SDS011;64847;45.778;12.802;2023-06-04T00:37:05;2.45;;;2.35;;
76115;SDS011;64847;45.778;12.802;2023-06-04T00:39:30;2.53;;;2.43;;
76115;SDS011;64847;45.778;12.802;2023-06-04T00:41:56;2.30;;;2.20;;
76115;SDS011;64847;45.778;12.802;2023-06-04T00:44:22;2.63;;;2.50;;
76115;SDS011;64847;45.778;12.802;2023-06-04T00:46:48;3.42;;;2.78;;
76115;SDS011;64847;45.778;12.802;2023-06-04T00:49:14;2.17;;;2.07;;
76115;SDS011;64847;45.778;12.802;2023-06-04T00:51:40;2.50;;;2.40;;
76115;SDS011;64847;45.778;12.802;2023-06-04T00:54:06;2.43;;;2.33;;
76115;SDS011;64847;45.778;12.802;2023-06-04T00:56:34;2.53;;;2.42;;
76115;SDS011;64847;45.778;12.802;2023-06-04T00:59:00;2.50;;;2.33;;
76115;SDS011;64847;45.778;12.802;2023-06-04T01:04:21;2.20;;;2.10;;
76115;SDS011;64847;45.778;12.802;2023-06-04T01:06:51;2.35;;;2.15;;
76115;SDS011;64847;45.778;12.802;2023-06-04T01:09:18;2.50;;;2.40;;
76115;SDS011;64847;45.778;12.802;2023-06-04T01:11:43;2.30;;;2.20;;
76115;SDS011;64847;45.778;12.802;2023-06-04T01:14:09;2.50;;;2.40;;
76115;SDS011;64847;45.778;12.802;2023-06-04T01:16:36;2.43;;;2.33;;
76115;SDS011;64847;45.778;12.802;2023-06-04T01:19:09;2.87;;;2.70;;
76115;SDS011;64847;45.778;12.802;2023-06-04T01:21:45;2.28;;;2.13;;
76115;SDS011;64847;45.778;12.802;2023-06-04T01:24:14;2.97;;;2.77;;
76115;SDS011;64847;45.778;12.802;2023-06-04T01:26:40;2.30;;;2.20;;
76115;SDS011;64847;45.778;12.802;2023-06-04T01:29:05;2.50;;;2.40;;
76115;SDS011;64847;45.778;12.802;2023-06-04T01:31:32;2.47;;;2.37;;
76115;SDS011;64847;45.778;12.802;2023-06-04T01:33:58;2.10;;;2.00;;
76115;SDS011;64847;45.778;12.802;2023-06-04T01:36:23;2.30;;;2.20;;
76115;SDS011;64847;45.778;12.802;2023-06-04T01:38:49;2.20;;;2.10;;
76115;SDS011;64847;45.778;12.802;2023-06-04T01:41:15;2.08;;;1.98;;
76115;SDS011;64847;45.778;12.802;2023-06-04T01:43:41;2.10;;;2.00;;
76115;SDS011;64847;45.778;12.802;2023-06-04T01:46:06;2.22;;;2.13;;
76115;SDS011;64847;45.778;12.802;2023-06-04T01:48:32;2.30;;;2.20;;
76115;SDS011;64847;45.778;12.802;2023-06-04T01:50:58;2.88;;;2.22;;
76115;SDS011;64847;45.778;12.802;2023-06-04T01:53:23;2.20;;;2.10;;
76115;SDS011;64847;45.778;12.802;2023-06-04T01:55:48;2.43;;;2.30;;
76115;SDS011;64847;45.778;12.802;2023-06-04T01:58:18;1.98;;;1.88;;
76115;SDS011;64847;45.778;12.802;2023-06-04T02:00:51;2.03;;;1.92;;
76115;SDS011;64847;45.778;12.802;2023-06-04T02:03:17;2.20;;;2.10;;
76115;SDS011;64847;45.778;12.802;2023-06-04T02:05:43;2.33;;;2.20;;
76115;SDS011;64847;45.778;12.802;2023-06-04T02:08:14;2.23;;;2.13;;
76115;SDS011;64847;45.778;12.802;2023-06-04T02:10:44;2.30;;;2.20;;
76115;SDS011;64847;45.778;12.802;2023-06-04T02:13:10;2.78;;;2.08;;
76115;SDS011;64847;45.778;12.802;2023-06-04T02:15:35;2.13;;;2.03;;
76115;SDS011;64847;45.778;12.802;2023-06-04T02:18:11;2.17;;;2.07;;
76115;SDS011;64847;45.778;12.802;2023-06-04T02:20:40;2.40;;;2.28;;
76115;SDS011;64847;45.778;12.802;2023-06-04T02:23:06;2.30;;;2.20;;
76115;SDS011;64847;45.778;12.802;2023-06-04T02:25:31;2.25;;;2.15;;
76115;SDS011;64847;45.778;12.802;2023-06-04T02:27:57;2.10;;;2.00;;
76115;SDS011;64847;45.778;12.802;2023-06-04T02:30:22;2.53;;;2.42;;
76115;SDS011;64847;45.778;12.802;2023-06-04T02:32:47;2.40;;;2.30;;
76115;SDS011;64847;45.778;12.802;2023-06-04T02:35:15;3.28;;;2.25;;
76115;SDS011;64847;45.778;12.802;2023-06-04T02:37:42;2.37;;;2.20;;
76115;SDS011;64847;45.778;12.802;2023-06-04T02:40:08;2.53;;;2.33;;
76115;SDS011;64847;45.778;12.802;2023-06-04T02:42:34;2.67;;;2.55;;
76115;SDS011;64847;45.778;12.802;2023-06-04T02:44:59;2.47;;;2.35;;
76115;SDS011;64847;45.778;12.802;2023-06-04T02:47:25;2.53;;;2.33;;
76115;SDS011;64847;45.778;12.802;2023-06-04T02:49:50;2.73;;;2.53;;
76115;SDS011;64847;45.778;12.802;2023-06-04T02:52:16;2.63;;;2.43;;
76115;SDS011;64847;45.778;12.802;2023-06-04T02:54:41;2.75;;;2.65;;
76115;SDS011;64847;45.778;12.802;2023-06-04T02:57:06;2.47;;;2.38;;
76115;SDS011;64847;45.778;12.802;2023-06-04T02:59:33;2.50;;;2.40;;
76115;SDS011;64847;45.778;12.802;2023-06-04T03:01:58;2.55;;;2.40;;
76115;SDS011;64847;45.778;12.802;2023-06-04T03:04:24;3.75;;;2.80;;
76115;SDS011;64847;45.778;12.802;2023-06-04T03:06:50;3.03;;;2.83;;
76115;SDS011;64847;45.778;12.802;2023-06-04T03:09:22;3.00;;;2.80;;
76115;SDS011;64847;45.778;12.802;2023-06-04T03:11:47;2.92;;;2.72;;
76115;SDS011;64847;45.778;12.802;2023-06-04T03:14:12;2.65;;;2.45;;
76115;SDS011;64847;45.778;12.802;2023-06-04T03:16:38;2.90;;;2.70;;
76115;SDS011;64847;45.778;12.802;2023-06-04T03:19:04;3.15;;;2.95;;
76115;SDS011;64847;45.778;12.802;2023-06-04T03:21:30;3.08;;;2.78;;
76115;SDS011;64847;45.778;12.802;2023-06-04T03:23:55;2.50;;;2.40;;
76115;SDS011;64847;45.778;12.802;2023-06-04T03:26:21;2.72;;;2.60;;
76115;SDS011;64847;45.778;12.802;2023-06-04T03:28:46;2.70;;;2.55;;
76115;SDS011;64847;45.778;12.802;2023-06-04T03:31:12;2.65;;;2.53;;
76115;SDS011;64847;45.778;12.802;2023-06-04T03:33:37;2.80;;;2.70;;
76115;SDS011;64847;45.778;12.802;2023-06-04T03:36:02;2.65;;;2.50;;
76115;SDS011;64847;45.778;12.802;2023-06-04T03:38:28;2.78;;;2.65;;
76115;SDS011;64847;45.778;12.802;2023-06-04T03:40:53;3.05;;;2.85;;
76115;SDS011;64847;45.778;12.802;2023-06-04T03:43:19;3.03;;;2.85;;
76115;SDS011;64847;45.778;12.802;2023-06-04T03:45:45;2.63;;;2.53;;
76115;SDS011;64847;45.778;12.802;2023-06-04T03:48:10;2.50;;;2.40;;
76115;SDS011;64847;45.778;12.802;2023-06-04T03:50:36;3.42;;;2.67;;
76115;SDS011;64847;45.778;12.802;2023-06-04T03:53:02;2.97;;;2.80;;
76115;SDS011;64847;45.778;12.802;2023-06-04T03:55:30;4.03;;;2.83;;
76115;SDS011;64847;45.778;12.802;2023-06-04T03:57:57;2.53;;;2.42;;
76115;SDS011;64847;45.778;12.802;2023-06-04T04:00:22;2.83;;;2.70;;
76115;SDS011;64847;45.778;12.802;2023-06-04T04:02:48;2.67;;;2.58;;
76115;SDS011;64847;45.778;12.802;2023-06-04T04:05:14;3.15;;;2.90;;
76115;SDS011;64847;45.778;12.802;2023-06-04T04:07:40;3.28;;;2.97;;
76115;SDS011;64847;45.778;12.802;2023-06-04T04:10:05;2.80;;;2.60;;
76115;SDS011;64847;45.778;12.802;2023-06-04T04:12:31;2.90;;;2.70;;
76115;SDS011;64847;45.778;12.802;2023-06-04T04:14:56;2.55;;;2.45;;
76115;SDS011;64847;45.778;12.802;2023-06-04T04:17:22;2.60;;;2.45;;
76115;SDS011;64847;45.778;12.802;2023-06-04T04:19:47;2.40;;;2.30;;
76115;SDS011;64847;45.778;12.802;2023-06-04T04:22:12;3.15;;;2.58;;
76115;SDS011;64847;45.778;12.802;2023-06-04T04:24:42;2.88;;;2.65;;
76115;SDS011;64847;45.778;12.802;2023-06-04T04:27:08;2.72;;;2.63;;
76115;SDS011;64847;45.778;12.802;2023-06-04T04:29:36;2.45;;;2.35;;
76115;SDS011;64847;45.778;12.802;2023-06-04T04:32:02;2.75;;;2.58;;
76115;SDS011;64847;45.778;12.802;2023-06-04T04:34:49;2.42;;;2.33;;
76115;SDS011;64847;45.778;12.802;2023-06-04T04:37:19;2.70;;;2.60;;
76115;SDS011;64847;45.778;12.802;2023-06-04T04:39:46;2.97;;;2.78;;
76115;SDS011;64847;45.778;12.802;2023-06-04T04:42:12;2.50;;;2.35;;
76115;SDS011;64847;45.778;12.802;2023-06-04T04:44:38;2.25;;;2.10;;
76115;SDS011;64847;45.778;12.802;2023-06-04T04:47:03;3.53;;;3.08;;
76115;SDS011;64847;45.778;12.802;2023-06-04T04:49:28;2.47;;;2.38;;
76115;SDS011;64847;45.778;12.802;2023-06-04T04:51:54;2.35;;;2.25;;
76115;SDS011;64847;45.778;12.802;2023-06-04T04:54:19;2.35;;;2.22;;
76115;SDS011;64847;45.778;12.802;2023-06-04T04:56:45;2.70;;;2.50;;
76115;SDS011;64847;45.778;12.802;2023-06-04T04:59:10;2.80;;;2.60;;
76115;SDS011;64847;45.778;12.802;2023-06-04T05:01:35;2.85;;;2.65;;
76115;SDS011;64847;45.778;12.802;2023-06-04T05:04:01;2.60;;;2.50;;
76115;SDS011;64847;45.778;12.802;2023-06-04T05:06:26;2.65;;;2.53;;
76115;SDS011;64847;45.778;12.802;2023-06-04T05:08:51;2.67;;;2.53;;
76115;SDS011;64847;45.778;12.802;2023-06-04T05:11:17;2.80;;;2.60;;
76115;SDS011;64847;45.778;12.802;2023-06-04T05:13:42;2.58;;;2.47;;
76115;SDS011;64847;45.778;12.802;2023-06-04T05:16:08;2.90;;;2.70;;
76115;SDS011;64847;45.778;12.802;2023-06-04T05:18:33;4.03;;;3.28;;
76115;SDS011;64847;45.778;12.802;2023-06-04T05:20:59;2.65;;;2.50;;
76115;SDS011;64847;45.778;12.802;2023-06-04T05:23:27;2.65;;;2.53;;
76115;SDS011;64847;45.778;12.802;2023-06-04T05:25:54;4.18;;;2.60;;
76115;SDS011;64847;45.778;12.802;2023-06-04T05:28:20;5.43;;;2.83;;
76115;SDS011;64847;45.778;12.802;2023-06-04T05:30:45;2.30;;;2.20;;
76115;SDS011;64847;45.778;12.802;2023-06-04T05:33:13;2.80;;;2.20;;
76115;SDS011;64847;45.778;12.802;2023-06-04T05:35:45;2.60;;;2.50;;
76115;SDS011;64847;45.778;12.802;2023-06-04T05:38:11;2.50;;;2.40;;
76115;SDS011;64847;45.778;12.802;2023-06-04T05:40:42;2.80;;;2.60;;
76115;SDS011;64847;45.778;12.802;2023-06-04T05:43:08;2.92;;;2.72;;
76115;SDS011;64847;45.778;12.802;2023-06-04T05:45:33;2.83;;;2.70;;
76115;SDS011;64847;45.778;12.802;2023-06-04T05:47:58;3.05;;;2.85;;
76115;SDS011;64847;45.778;12.802;2023-06-04T05:50:24;2.42;;;2.33;;
76115;SDS011;64847;45.778;12.802;2023-06-04T05:52:49;2.85;;;2.65;;
76115;SDS011;64847;45.778;12.802;2023-06-04T05:55:15;2.83;;;2.63;;
76115;SDS011;64847;45.778;12.802;2023-06-04T05:57:41;2.55;;;2.45;;
76115;SDS011;64847;45.778;12.802;2023-06-04T06:00:07;2.83;;;2.70;;
76115;SDS011;64847;45.778;12.802;2023-06-04T06:02:36;3.10;;;2.90;;
76115;SDS011;64847;45.778;12.802;2023-06-04T06:05:03;3.30;;;3.10;;
76115;SDS011;64847;45.778;12.802;2023-06-04T06:07:30;3.65;;;3.35;;
76115;SDS011;64847;45.778;12.802;2023-06-04T06:09:56;3.60;;;3.38;;
76115;SDS011;64847;45.778;12.802;2023-06-04T06:12:21;3.78;;;3.58;;
76115;SDS011;64847;45.778;12.802;2023-06-04T06:14:46;3.90;;;3.60;;
76115;SDS011;64847;45.778;12.802;2023-06-04T06:17:13;4.25;;;3.88;;
76115;SDS011;64847;45.778;12.802;2023-06-04T06:19:38;4.00;;;3.70;;
76115;SDS011;64847;45.778;12.802;2023-06-04T06:22:04;4.05;;;3.75;;
76115;SDS011;64847;45.778;12.802;2023-06-04T06:24:29;3.97;;;3.67;;
76115;SDS011;64847;45.778;12.802;2023-06-04T06:26:55;3.92;;;3.65;;
76115;SDS011;64847;45.778;12.802;2023-06-04T06:29:20;3.53;;;3.22;;
76115;SDS011;64847;45.778;12.802;2023-06-04T06:31:46;3.75;;;3.45;;
76115;SDS011;64847;45.778;12.802;2023-06-04T06:34:11;4.20;;;3.90;;
76115;SDS011;64847;45.778;12.802;2023-06-04T06:36:37;4.28;;;3.97;;
76115;SDS011;64847;45.778;12.802;2023-06-04T06:39:03;3.78;;;3.58;;
76115;SDS011;64847;45.778;12.802;2023-06-04T06:41:28;3.83;;;3.60;;
76115;SDS011;64847;45.778;12.802;2023-06-04T06:43:55;3.75;;;3.45;;
76115;SDS011;64847;45.778;12.802;2023-06-04T06:46:22;3.85;;;3.60;;
76115;SDS011;64847;45.778;12.802;2023-06-04T06:48:47;4.55;;;4.15;;
76115;SDS011;64847;45.778;12.802;2023-06-04T06:51:13;4.00;;;3.70;;
76115;SDS011;64847;45.778;12.802;2023-06-04T06:53:39;4.38;;;4.07;;
76115;SDS011;64847;45.778;12.802;2023-06-04T06:56:04;5.00;;;4.53;;
76115;SDS011;64847;45.778;12.802;2023-06-04T06:58:30;3.70;;;3.47;;
76115;SDS011;64847;45.778;12.802;2023-06-04T07:00:55;4.10;;;3.80;;
76115;SDS011;64847;45.778;12.802;2023-06-04T07:03:21;4.35;;;4.05;;
76115;SDS011;64847;45.778;12.802;2023-06-04T07:05:47;4.53;;;4.13;;
76115;SDS011;64847;45.778;12.802;2023-06-04T07:08:12;4.55;;;4.25;;
76115;SDS011;64847;45.778;12.802;2023-06-04T07:10:37;4.85;;;4.45;;
76115;SDS011;64847;45.778;12.802;2023-06-04T07:13:03;4.20;;;3.90;;
76115;SDS011;64847;45.778;12.802;2023-06-04T07:15:28;4.38;;;4.07;;
76115;SDS011;64847;45.778;12.802;2023-06-04T07:17:54;4.53;;;4.22;;
76115;SDS011;64847;45.778;12.802;2023-06-04T07:20:19;4.85;;;4.43;;
76115;SDS011;64847;45.778;12.802;2023-06-04T07:22:44;4.10;;;3.80;;
76115;SDS011;64847;45.778;12.802;2023-06-04T07:25:10;4.60;;;4.20;;
76115;SDS011;64847;45.778;12.802;2023-06-04T07:27:36;4.65;;;4.35;;
76115;SDS011;64847;45.778;12.802;2023-06-04T07:30:01;4.93;;;4.53;;
76115;SDS011;64847;45.778;12.802;2023-06-04T07:32:27;4.30;;;4.00;;
76115;SDS011;64847;45.778;12.802;2023-06-04T07:34:52;5.10;;;4.70;;
76115;SDS011;64847;45.778;12.802;2023-06-04T07:37:18;4.60;;;4.30;;
76115;SDS011;64847;45.778;12.802;2023-06-04T07:39:43;4.63;;;4.32;;
76115;SDS011;64847;45.778;12.802;2023-06-04T07:42:09;4.35;;;4.05;;
76115;SDS011;64847;45.778;12.802;2023-06-04T07:44:35;4.53;;;4.22;;
76115;SDS011;64847;45.778;12.802;2023-06-04T07:47:01;4.30;;;4.00;;
76115;SDS011;64847;45.778;12.802;2023-06-04T07:49:27;4.15;;;3.85;;
76115;SDS011;64847;45.778;12.802;2023-06-04T07:51:52;4.70;;;4.35;;
76115;SDS011;64847;45.778;12.802;2023-06-04T07:54:18;4.25;;;3.95;;
76115;SDS011;64847;45.778;12.802;2023-06-04T07:56:43;4.55;;;4.25;;
76115;SDS011;64847;45.778;12.802;2023-06-04T07:59:09;4.10;;;3.80;;
76115;SDS011;64847;45.778;12.802;2023-06-04T08:01:34;4.38;;;3.97;;
76115;SDS011;64847;45.778;12.802;2023-06-04T08:03:59;3.78;;;3.58;;
76115;SDS011;64847;45.778;12.802;2023-06-04T08:06:25;3.88;;;3.58;;
76115;SDS011;64847;45.778;12.802;2023-06-04T08:08:51;4.10;;;3.80;;
76115;SDS011;64847;45.778;12.802;2023-06-04T08:11:17;3.92;;;3.70;;
76115;SDS011;64847;45.778;12.802;2023-06-04T08:13:42;3.65;;;3.38;;
76115;SDS011;64847;45.778;12.802;2023-06-04T08:16:09;3.85;;;3.60;;
76115;SDS011;64847;45.778;12.802;2023-06-04T08:18:41;3.80;;;3.58;;
76115;SDS011;64847;45.778;12.802;2023-06-04T08:21:08;3.88;;;3.65;;
76115;SDS011;64847;45.778;12.802;2023-06-04T08:23:34;3.85;;;3.55;;
76115;SDS011;64847;45.778;12.802;2023-06-04T08:25:59;4.00;;;3.70;;
76115;SDS011;64847;45.778;12.802;2023-06-04T08:28:25;3.83;;;3.58;;
76115;SDS011;64847;45.778;12.802;2023-06-04T08:30:50;3.65;;;3.45;;
76115;SDS011;64847;45.778;12.802;2023-06-04T08:33:16;3.45;;;3.33;;
76115;SDS011;64847;45.778;12.802;2023-06-04T08:35:41;3.78;;;3.47;;
76115;SDS011;64847;45.778;12.802;2023-06-04T08:38:06;3.53;;;3.33;;
76115;SDS011;64847;45.778;12.802;2023-06-04T08:40:32;3.50;;;3.30;;
76115;SDS011;64847;45.778;12.802;2023-06-04T08:42:59;3.35;;;3.15;;
76115;SDS011;64847;45.778;12.802;2023-06-04T08:45:25;2.78;;;2.67;;
76115;SDS011;64847;45.778;12.802;2023-06-04T08:47:52;3.40;;;3.20;;
76115;SDS011;64847;45.778;12.802;2023-06-04T08:50:19;3.30;;;3.13;;
76115;SDS011;64847;45.778;12.802;2023-06-04T08:52:47;3.50;;;3.30;;
76115;SDS011;64847;45.778;12.802;2023-06-04T08:55:14;4.00;;;3.70;;
76115;SDS011;64847;45.778;12.802;2023-06-04T08:57:40;3.72;;;3.53;;
76115;SDS011;64847;45.778;12.802;2023-06-04T09:00:06;3.78;;;3.58;;
76115;SDS011;64847;45.778;12.802;2023-06-04T09:02:33;3.88;;;3.67;;
76115;SDS011;64847;45.778;12.802;2023-06-04T09:05:06;3.67;;;3.42;;
76115;SDS011;64847;45.778;12.802;2023-06-04T09:07:38;4.30;;;3.90;;
76115;SDS011;64847;45.778;12.802;2023-06-04T09:10:06;4.70;;;4.40;;
76115;SDS011;64847;45.778;12.802;2023-06-04T09:12:33;4.40;;;4.10;;
76115;SDS011;64847;45.778;12.802;2023-06-04T09:15:01;4.10;;;3.80;;
76115;SDS011;64847;45.778;12.802;2023-06-04T09:17:26;3.80;;;3.50;;
76115;SDS011;64847;45.778;12.802;2023-06-04T09:19:52;3.70;;;3.47;;
76115;SDS011;64847;45.778;12.802;2023-06-04T09:22:17;5.35;;;4.38;;
76115;SDS011;64847;45.778;12.802;2023-06-04T09:24:43;4.30;;;4.00;;
76115;SDS011;64847;45.778;12.802;2023-06-04T09:27:18;4.22;;;3.85;;
76115;SDS011;64847;45.778;12.802;2023-06-04T09:29:51;4.15;;;3.85;;
76115;SDS011;64847;45.778;12.802;2023-06-04T09:32:21;4.10;;;3.80;;
76115;SDS011;64847;45.778;12.802;2023-06-04T09:34:49;4.07;;;3.78;;
76115;SDS011;64847;45.778;12.802;2023-06-04T09:37:15;4.13;;;3.72;;
76115;SDS011;64847;45.778;12.802;2023-06-04T09:39:44;4.32;;;4.03;;
76115;SDS011;64847;45.778;12.802;2023-06-04T09:42:18;3.95;;;3.65;;
76115;SDS011;64847;45.778;12.802;2023-06-04T09:44:43;4.40;;;4.00;;
76115;SDS011;64847;45.778;12.802;2023-06-04T09:47:12;4.15;;;3.75;;
76115;SDS011;64847;45.778;12.802;2023-06-04T09:49:46;4.20;;;3.90;;
76115;SDS011;64847;45.778;12.802;2023-06-04T09:52:14;4.00;;;3.70;;
76115;SDS011;64847;45.778;12.802;2023-06-04T09:54:40;3.45;;;3.25;;
76115;SDS011;64847;45.778;12.802;2023-06-04T09:57:18;3.60;;;3.30;;
76115;SDS011;64847;45.778;12.802;2023-06-04T09:59:44;3.72;;;3.47;;
76115;SDS011;64847;45.778;12.802;2023-06-04T10:02:15;3.58;;;3.28;;
76115;SDS011;64847;45.778;12.802;2023-06-04T10:04:44;3.38;;;3.17;;
76115;SDS011;64847;45.778;12.802;2023-06-04T10:07:22;3.40;;;3.20;;
76115;SDS011;64847;45.778;12.802;2023-06-04T10:09:48;3.30;;;3.10;;
76115;SDS011;64847;45.778;12.802;2023-06-04T10:12:15;3.00;;;2.85;;
76115;SDS011;64847;45.778;12.802;2023-06-04T10:14:41;3.40;;;3.10;;
76115;SDS011;64847;45.778;12.802;2023-06-04T10:17:11;2.88;;;2.78;;
76115;SDS011;64847;45.778;12.802;2023-06-04T10:19:37;2.95;;;2.75;;
76115;SDS011;64847;45.778;12.802;2023-06-04T10:22:03;3.10;;;2.90;;
76115;SDS011;64847;45.778;12.802;2023-06-04T10:24:30;3.20;;;3.00;;
76115;SDS011;64847;45.778;12.802;2023-06-04T10:26:57;2.88;;;2.67;;
76115;SDS011;64847;45.778;12.802;2023-06-04T10:29:23;2.83;;;2.63;;
76115;SDS011;64847;45.778;12.802;2023-06-04T10:31:53;2.85;;;2.65;;
76115;SDS011;64847;45.778;12.802;2023-06-04T10:34:19;2.63;;;2.53;;
76115;SDS011;64847;45.778;12.802;2023-06-04T10:36:44;2.60;;;2.50;;
76115;SDS011;64847;45.778;12.802;2023-06-04T10:39:10;2.70;;;2.50;;
76115;SDS011;64847;45.778;12.802;2023-06-04T10:41:36;2.60;;;2.50;;
76115;SDS011;64847;45.778;12.802;2023-06-04T10:44:02;2.65;;;2.55;;
76115;SDS011;64847;45.778;12.802;2023-06-04T10:46:36;2.53;;;2.40;;
76115;SDS011;64847;45.778;12.802;2023-06-04T10:49:05;2.80;;;2.70;;
76115;SDS011;64847;45.778;12.802;2023-06-04T10:51:32;2.67;;;2.55;;
76115;SDS011;64847;45.778;12.802;2023-06-04T10:53:59;2.78;;;2.67;;
76115;SDS011;64847;45.778;12.802;2023-06-04T10:56:28;2.67;;;2.58;;
76115;SDS011;64847;45.778;12.802;2023-06-04T10:58:57;2.60;;;2.40;;
76115;SDS011;64847;45.778;12.802;2023-06-04T11:01:25;2.47;;;2.38;;
76115;SDS011;64847;45.778;12.802;2023-06-04T11:03:52;2.45;;;2.35;;
76115;SDS011;64847;45.778;12.802;2023-06-04T11:06:17;2.47;;;2.38;;
76115;SDS011;64847;45.778;12.802;2023-06-04T11:08:43;2.50;;;2.40;;
76115;SDS011;64847;45.778;12.802;2023-06-04T11:11:12;2.97;;;2.78;;
76115;SDS011;64847;45.778;12.802;2023-06-04T11:13:38;2.67;;;2.58;;
76115;SDS011;64847;45.778;12.802;2023-06-04T11:16:14;2.42;;;2.33;;
76115;SDS011;64847;45.778;12.802;2023-06-04T11:18:40;2.47;;;2.38;;
76115;SDS011;64847;45.778;12.802;2023-06-04T11:21:05;2.50;;;2.40;;
76115;SDS011;64847;45.778;12.802;2023-06-04T11:23:32;2.60;;;2.50;;
76115;SDS011;64847;45.778;12.802;2023-06-04T11:25:58;2.58;;;2.47;;
76115;SDS011;64847;45.778;12.802;2023-06-04T11:28:24;2.70;;;2.60;;
76115;SDS011;64847;45.778;12.802;2023-06-04T11:30:56;2.83;;;2.63;;
76115;SDS011;64847;45.778;12.802;2023-06-04T11:33:22;2.60;;;2.50;;
76115;SDS011;64847;45.778;12.802;2023-06-04T11:35:48;2.67;;;2.53;;
76115;SDS011;64847;45.778;12.802;2023-06-04T11:38:13;2.67;;;2.58;;
76115;SDS011;64847;45.778;12.802;2023-06-04T11:40:38;2.75;;;2.65;;
76115;SDS011;64847;45.778;12.802;2023-06-04T11:43:04;2.80;;;2.70;;
76115;SDS011;64847;45.778;12.802;2023-06-04T11:45:30;2.80;;;2.70;;
76115;SDS011;64847;45.778;12.802;2023-06-04T11:47:57;2.47;;;2.38;;
76115;SDS011;64847;45.778;12.802;2023-06-04T11:50:23;2.80;;;2.70;;
76115;SDS011;64847;45.778;12.802;2023-06-04T11:52:52;2.65;;;2.53;;
76115;SDS011;64847;45.778;12.802;2023-06-04T11:55:17;2.85;;;2.67;;
76115;SDS011;64847;45.778;12.802;2023-06-04T11:57:45;3.22;;;3.10;;
76115;SDS011;64847;45.778;12.802;2023-06-04T12:00:11;2.63;;;2.53;;
76115;SDS011;64847;45.778;12.802;2023-06-04T12:02:38;2.80;;;2.70;;
76115;SDS011;64847;45.778;12.802;2023-06-04T12:05:20;2.83;;;2.65;;
76115;SDS011;64847;45.778;12.802;2023-06-04T12:07:48;2.78;;;2.58;;
76115;SDS011;64847;45.778;12.802;2023-06-04T12:10:16;3.13;;;2.92;;
76115;SDS011;64847;45.778;12.802;2023-06-04T12:12:42;2.85;;;2.75;;
76115;SDS011;64847;45.778;12.802;2023-06-04T12:15:08;2.67;;;2.58;;
76115;SDS011;64847;45.778;12.802;2023-06-04T12:17:35;2.65;;;2.55;;
76115;SDS011;64847;45.778;12.802;2023-06-04T12:20:14;2.90;;;2.80;;
76115;SDS011;64847;45.778;12.802;2023-06-04T12:22:46;2.50;;;2.40;;
76115;SDS011;64847;45.778;12.802;2023-06-04T12:25:12;2.83;;;2.70;;
76115;SDS011;64847;45.778;12.802;2023-06-04T12:27:46;2.97;;;2.80;;
76115;SDS011;64847;45.778;12.802;2023-06-04T12:30:12;2.60;;;2.50;;
76115;SDS011;64847;45.778;12.802;2023-06-04T12:32:37;2.65;;;2.55;;
76115;SDS011;64847;45.778;12.802;2023-06-04T12:35:03;2.70;;;2.60;;
76115;SDS011;64847;45.778;12.802;2023-06-04T12:37:30;3.13;;;2.92;;
76115;SDS011;64847;45.778;12.802;2023-06-04T12:39:55;3.35;;;3.15;;
76115;SDS011;64847;45.778;12.802;2023-06-04T12:42:21;3.10;;;2.90;;
76115;SDS011;64847;45.778;12.802;2023-06-04T12:44:46;2.90;;;2.70;;
76115;SDS011;64847;45.778;12.802;2023-06-04T12:47:11;3.08;;;2.88;;
76115;SDS011;64847;45.778;12.802;2023-06-04T12:49:37;2.50;;;2.40;;
76115;SDS011;64847;45.778;12.802;2023-06-04T12:52:03;3.20;;;3.00;;
76115;SDS011;64847;45.778;12.802;2023-06-04T12:54:29;3.55;;;3.35;;
76115;SDS011;64847;45.778;12.802;2023-06-04T12:56:55;3.05;;;2.85;;
76115;SDS011;64847;45.778;12.802;2023-06-04T12:59:21;3.13;;;2.92;;
76115;SDS011;64847;45.778;12.802;2023-06-04T13:01:47;3.00;;;2.90;;
76115;SDS011;64847;45.778;12.802;2023-06-04T13:04:13;3.25;;;3.05;;
76115;SDS011;64847;45.778;12.802;2023-06-04T13:06:38;3.28;;;3.08;;
76115;SDS011;64847;45.778;12.802;2023-06-04T13:09:04;3.72;;;3.42;;
76115;SDS011;64847;45.778;12.802;2023-06-04T13:11:37;3.13;;;3.03;;
76115;SDS011;64847;45.778;12.802;2023-06-04T13:14:12;3.45;;;3.25;;
76115;SDS011;64847;45.778;12.802;2023-06-04T13:16:37;3.25;;;3.05;;
76115;SDS011;64847;45.778;12.802;2023-06-04T13:19:03;3.28;;;3.15;;
76115;SDS011;64847;45.778;12.802;2023-06-04T13:21:29;3.10;;;2.90;;
76115;SDS011;64847;45.778;12.802;2023-06-04T13:23:54;3.13;;;2.88;;
76115;SDS011;64847;45.778;12.802;2023-06-04T13:26:21;3.05;;;2.95;;
76115;SDS011;64847;45.778;12.802;2023-06-04T13:28:47;3.35;;;3.15;;
76115;SDS011;64847;45.778;12.802;2023-06-04T13:31:12;3.45;;;3.25;;
76115;SDS011;64847;45.778;12.802;2023-06-04T13:33:37;3.13;;;2.92;;
76115;SDS011;64847;45.778;12.802;2023-06-04T13:36:03;3.38;;;3.17;;
76115;SDS011;64847;45.778;12.802;2023-06-04T13:38:28;3.55;;;3.28;;
76115;SDS011;64847;45.778;12.802;2023-06-04T13:40:54;3.28;;;3.08;;
76115;SDS011;64847;45.778;12.802;2023-06-04T13:43:19;3.17;;;2.97;;
76115;SDS011;64847;45.778;12.802;2023-06-04T13:45:45;3.15;;;3.03;;
76115;SDS011;64847;45.778;12.802;2023-06-04T13:48:11;3.47;;;3.28;;
76115;SDS011;64847;45.778;12.802;2023-06-04T13:50:37;3.25;;;3.05;;
76115;SDS011;64847;45.778;12.802;2023-06-04T13:53:02;3.55;;;3.25;;
76115;SDS011;64847;45.778;12.802;2023-06-04T13:55:28;3.55;;;3.35;;
76115;SDS011;64847;45.778;12.802;2023-06-04T13:57:54;3.03;;;2.92;;
76115;SDS011;64847;45.778;12.802;2023-06-04T14:00:19;2.85;;;2.75;;
76115;SDS011;64847;45.778;12.802;2023-06-04T14:02:46;3.10;;;2.90;;
76115;SDS011;64847;45.778;12.802;2023-06-04T14:05:12;3.40;;;3.20;;
76115;SDS011;64847;45.778;12.802;2023-06-04T14:07:37;3.28;;;3.10;;
76115;SDS011;64847;45.778;12.802;2023-06-04T14:10:03;3.40;;;3.20;;
76115;SDS011;64847;45.778;12.802;2023-06-04T14:12:29;3.25;;;3.05;;
76115;SDS011;64847;45.778;12.802;2023-06-04T14:14:55;3.33;;;3.03;;
76115;SDS011;64847;45.778;12.802;2023-06-04T14:17:20;3.22;;;3.03;;
76115;SDS011;64847;45.778;12.802;2023-06-04T14:19:46;3.45;;;3.30;;
76115;SDS011;64847;45.778;12.802;2023-06-04T14:22:11;3.15;;;2.95;;
76115;SDS011;64847;45.778;12.802;2023-06-04T14:24:37;3.08;;;2.95;;
76115;SDS011;64847;45.778;12.802;2023-06-04T14:27:03;3.22;;;3.08;;
76115;SDS011;64847;45.778;12.802;2023-06-04T14:29:29;3.25;;;3.05;;
76115;SDS011;64847;45.778;12.802;2023-06-04T14:31:54;3.10;;;2.90;;